Mid Ohio Valley Regional Airport
KPKB : now visible

Airfield :











YOU CAN JOIN US ON...

 
LOGIN :

Register | Disclaimer

   EN    FR    IT 

 









Legend :    VFR   Marginal VFR   IFR   Intensive IFR   Very Intensive IFR
Visi :
Ceiling :
>= 8 km
>= 3000ft
5 to 8 km
1000 to 3000 ft
1500m to 5 km
500 to 1000 ft
800 to 1500m
200 to 500 ft
< 800m
< 200 ft
Symbols :   Thunderstorms  Fog  Heavy snow  Heavy precipitations  Wind > 20 kt







- Airport Elevation : 858 ft
- IATA code : PKB


KPKB - Mid Ohio Valley Regional

CURRENT METAR :
  • 252353Z 05007KT 10SM CLR 24/12 A3012 RMK A02 SLP197 T02390122 RTX FIBI

EXPIRED METARs :
  • 252253Z 05007KT 10SM CLR 24/12 A3012 RMK A02 SLP197 T02390122 RTX FIBI

TAF KPKB
Valid from the 26 at 00:00 until the 27 at 00:00 UTC


252334Z 2600/2624 09007KT P6SM FEW200
FM261700 14006KT P6SM SCT150
FM261900 15006KT P6SM BKN120
FM262100 17007KT P6SM VCSH BKN060
No reported NOTAMs for that airfield.



MET'MAP, your aeronautical weather chart ! - Copyright ORBIFLY December 2007 - Disclaimer

ORBIFLY MET'MAP TEAM :

Programming & Development : Alexandra Zaïnal
Concept & Development : Baudouin d'Aumeries
Co-Development & Prog : Marc-Olivier Méhu
Technical & hardware support : Manuel Goepfert

Contact : metmap@orbifly.com




SOURCES & CREDITS :

   NOAA       Earth
Advisory